sensor_id;sensor_type;location;lat;lon;timestamp;P1;durP1;ratioP1;P2;durP2;ratioP2
11203;SDS011;5659;49.408;11.116;2023-06-05T00:01:05;5.15;;;2.80;;
11203;SDS011;5659;49.408;11.116;2023-06-05T00:03:31;9.20;;;2.65;;
11203;SDS011;5659;49.408;11.116;2023-06-05T00:05:58;5.85;;;3.00;;
11203;SDS011;5659;49.408;11.116;2023-06-05T00:08:24;5.03;;;2.92;;
11203;SDS011;5659;49.408;11.116;2023-06-05T00:10:50;4.60;;;2.65;;
11203;SDS011;5659;49.408;11.116;2023-06-05T00:13:16;4.65;;;3.03;;
11203;SDS011;5659;49.408;11.116;2023-06-05T00:15:42;4.55;;;3.28;;
11203;SDS011;5659;49.408;11.116;2023-06-05T00:18:08;5.18;;;2.72;;
11203;SDS011;5659;49.408;11.116;2023-06-05T00:20:34;4.55;;;2.80;;
11203;SDS011;5659;49.408;11.116;2023-06-05T00:23:00;6.82;;;2.88;;
11203;SDS011;5659;49.408;11.116;2023-06-05T00:25:26;5.10;;;2.95;;
11203;SDS011;5659;49.408;11.116;2023-06-05T00:27:52;5.93;;;2.80;;
11203;SDS011;5659;49.408;11.116;2023-06-05T00:30:18;2.97;;;2.53;;
11203;SDS011;5659;49.408;11.116;2023-06-05T00:32:44;4.78;;;2.90;;
11203;SDS011;5659;49.408;11.116;2023-06-05T00:35:10;7.25;;;3.33;;
11203;SDS011;5659;49.408;11.116;2023-06-05T00:37:36;5.03;;;2.88;;
11203;SDS011;5659;49.408;11.116;2023-06-05T00:40:03;7.97;;;2.90;;
11203;SDS011;5659;49.408;11.116;2023-06-05T00:42:29;3.97;;;2.90;;
11203;SDS011;5659;49.408;11.116;2023-06-05T00:44:55;7.45;;;2.88;;
11203;SDS011;5659;49.408;11.116;2023-06-05T00:47:21;3.33;;;2.42;;
11203;SDS011;5659;49.408;11.116;2023-06-05T00:49:48;7.53;;;3.03;;
11203;SDS011;5659;49.408;11.116;2023-06-05T00:52:14;6.07;;;2.78;;
11203;SDS011;5659;49.408;11.116;2023-06-05T00:54:40;6.72;;;3.28;;
11203;SDS011;5659;49.408;11.116;2023-06-05T00:57:07;6.40;;;3.33;;
11203;SDS011;5659;49.408;11.116;2023-06-05T00:59:33;5.07;;;2.65;;
11203;SDS011;5659;49.408;11.116;2023-06-05T01:02:01;4.70;;;2.65;;
11203;SDS011;5659;49.408;11.116;2023-06-05T01:04:30;6.72;;;2.70;;
11203;SDS011;5659;49.408;11.116;2023-06-05T01:06:58;8.30;;;3.15;;
11203;SDS011;5659;49.408;11.116;2023-06-05T01:09:26;5.22;;;2.70;;
11203;SDS011;5659;49.408;11.116;2023-06-05T01:14:34;4.57;;;2.42;;
11203;SDS011;5659;49.408;11.116;2023-06-05T01:17:02;7.93;;;2.80;;
11203;SDS011;5659;49.408;11.116;2023-06-05T01:19:29;5.93;;;2.35;;
11203;SDS011;5659;49.408;11.116;2023-06-05T01:21:56;7.70;;;3.08;;
11203;SDS011;5659;49.408;11.116;2023-06-05T01:24:22;3.00;;;2.10;;
11203;SDS011;5659;49.408;11.116;2023-06-05T01:29:17;13.88;;;2.75;;
11203;SDS011;5659;49.408;11.116;2023-06-05T01:31:45;7.70;;;2.50;;
11203;SDS011;5659;49.408;11.116;2023-06-05T01:34:12;6.03;;;3.13;;
11203;SDS011;5659;49.408;11.116;2023-06-05T01:36:40;5.32;;;2.63;;
11203;SDS011;5659;49.408;11.116;2023-06-05T01:39:07;5.72;;;2.50;;
11203;SDS011;5659;49.408;11.116;2023-06-05T01:41:35;4.70;;;2.53;;
11203;SDS011;5659;49.408;11.116;2023-06-05T01:44:01;16.00;;;3.38;;
11203;SDS011;5659;49.408;11.116;2023-06-05T01:46:27;9.07;;;2.90;;
11203;SDS011;5659;49.408;11.116;2023-06-05T01:48:53;4.40;;;2.50;;
11203;SDS011;5659;49.408;11.116;2023-06-05T01:51:19;3.80;;;2.80;;
11203;SDS011;5659;49.408;11.116;2023-06-05T01:53:45;12.73;;;3.75;;
11203;SDS011;5659;49.408;11.116;2023-06-05T01:56:13;7.47;;;3.13;;
11203;SDS011;5659;49.408;11.116;2023-06-05T01:58:44;9.25;;;3.97;;
11203;SDS011;5659;49.408;11.116;2023-06-05T02:01:10;6.85;;;3.10;;
11203;SDS011;5659;49.408;11.116;2023-06-05T02:03:36;5.18;;;2.80;;
11203;SDS011;5659;49.408;11.116;2023-06-05T02:06:02;7.93;;;3.15;;
11203;SDS011;5659;49.408;11.116;2023-06-05T02:08:27;4.78;;;2.70;;
11203;SDS011;5659;49.408;11.116;2023-06-05T02:10:53;5.95;;;2.63;;
11203;SDS011;5659;49.408;11.116;2023-06-05T02:13:19;8.30;;;2.92;;
11203;SDS011;5659;49.408;11.116;2023-06-05T02:15:47;8.02;;;3.42;;
11203;SDS011;5659;49.408;11.116;2023-06-05T02:18:17;6.13;;;2.72;;
11203;SDS011;5659;49.408;11.116;2023-06-05T02:20:43;4.97;;;2.78;;
11203;SDS011;5659;49.408;11.116;2023-06-05T02:23:09;4.40;;;2.63;;
11203;SDS011;5659;49.408;11.116;2023-06-05T02:25:35;3.70;;;2.55;;
11203;SDS011;5659;49.408;11.116;2023-06-05T02:28:01;5.85;;;3.00;;
11203;SDS011;5659;49.408;11.116;2023-06-05T02:30:27;7.10;;;3.25;;
11203;SDS011;5659;49.408;11.116;2023-06-05T02:32:53;8.93;;;2.90;;
11203;SDS011;5659;49.408;11.116;2023-06-05T02:35:21;8.35;;;3.08;;
11203;SDS011;5659;49.408;11.116;2023-06-05T02:37:48;4.68;;;2.97;;
11203;SDS011;5659;49.408;11.116;2023-06-05T02:40:14;7.50;;;2.75;;
11203;SDS011;5659;49.408;11.116;2023-06-05T02:42:40;5.80;;;3.00;;
11203;SDS011;5659;49.408;11.116;2023-06-05T02:45:07;7.13;;;3.00;;
11203;SDS011;5659;49.408;11.116;2023-06-05T02:47:33;10.82;;;2.95;;
11203;SDS011;5659;49.408;11.116;2023-06-05T02:50:02;4.80;;;2.47;;
11203;SDS011;5659;49.408;11.116;2023-06-05T02:52:28;5.72;;;2.70;;
11203;SDS011;5659;49.408;11.116;2023-06-05T02:54:57;5.63;;;2.92;;
11203;SDS011;5659;49.408;11.116;2023-06-05T02:57:23;5.90;;;2.95;;
11203;SDS011;5659;49.408;11.116;2023-06-05T02:59:51;5.70;;;2.65;;
11203;SDS011;5659;49.408;11.116;2023-06-05T03:02:17;5.30;;;2.80;;
11203;SDS011;5659;49.408;11.116;2023-06-05T03:04:43;5.18;;;2.83;;
11203;SDS011;5659;49.408;11.116;2023-06-05T03:07:09;8.23;;;3.00;;
11203;SDS011;5659;49.408;11.116;2023-06-05T03:09:37;4.25;;;2.70;;
11203;SDS011;5659;49.408;11.116;2023-06-05T03:12:03;7.38;;;2.75;;
11203;SDS011;5659;49.408;11.116;2023-06-05T03:14:30;4.82;;;2.92;;
11203;SDS011;5659;49.408;11.116;2023-06-05T03:16:56;11.48;;;3.40;;
11203;SDS011;5659;49.408;11.116;2023-06-05T03:19:23;11.52;;;3.45;;
11203;SDS011;5659;49.408;11.116;2023-06-05T03:21:50;6.20;;;3.33;;
11203;SDS011;5659;49.408;11.116;2023-06-05T03:24:16;8.15;;;3.20;;
11203;SDS011;5659;49.408;11.116;2023-06-05T03:26:42;8.50;;;3.10;;
11203;SDS011;5659;49.408;11.116;2023-06-05T03:29:09;9.23;;;3.10;;
11203;SDS011;5659;49.408;11.116;2023-06-05T03:31:35;5.88;;;3.00;;
11203;SDS011;5659;49.408;11.116;2023-06-05T03:34:02;3.90;;;2.55;;
11203;SDS011;5659;49.408;11.116;2023-06-05T03:36:29;5.95;;;2.83;;
11203;SDS011;5659;49.408;11.116;2023-06-05T03:38:55;5.40;;;2.92;;
11203;SDS011;5659;49.408;11.116;2023-06-05T03:41:22;6.88;;;3.17;;
11203;SDS011;5659;49.408;11.116;2023-06-05T03:43:47;7.32;;;3.28;;
11203;SDS011;5659;49.408;11.116;2023-06-05T03:46:14;6.47;;;3.47;;
11203;SDS011;5659;49.408;11.116;2023-06-05T03:48:44;8.40;;;3.30;;
11203;SDS011;5659;49.408;11.116;2023-06-05T03:51:10;9.32;;;3.42;;
11203;SDS011;5659;49.408;11.116;2023-06-05T03:53:36;4.82;;;3.35;;
11203;SDS011;5659;49.408;11.116;2023-06-05T03:56:08;6.00;;;3.50;;
11203;SDS011;5659;49.408;11.116;2023-06-05T03:58:34;9.35;;;4.03;;
11203;SDS011;5659;49.408;11.116;2023-06-05T04:01:00;5.60;;;3.85;;
11203;SDS011;5659;49.408;11.116;2023-06-05T04:03:26;9.02;;;3.85;;
11203;SDS011;5659;49.408;11.116;2023-06-05T04:05:52;6.45;;;3.72;;
11203;SDS011;5659;49.408;11.116;2023-06-05T04:08:18;8.43;;;4.00;;
11203;SDS011;5659;49.408;11.116;2023-06-05T04:10:44;7.40;;;3.67;;
11203;SDS011;5659;49.408;11.116;2023-06-05T04:13:10;8.48;;;3.88;;
11203;SDS011;5659;49.408;11.116;2023-06-05T04:15:36;8.23;;;3.33;;
11203;SDS011;5659;49.408;11.116;2023-06-05T04:18:02;8.85;;;4.22;;
11203;SDS011;5659;49.408;11.116;2023-06-05T04:20:28;8.57;;;3.60;;
11203;SDS011;5659;49.408;11.116;2023-06-05T04:22:55;10.65;;;3.85;;
11203;SDS011;5659;49.408;11.116;2023-06-05T04:25:21;8.60;;;3.90;;
11203;SDS011;5659;49.408;11.116;2023-06-05T04:27:47;8.75;;;4.32;;
11203;SDS011;5659;49.408;11.116;2023-06-05T04:30:14;10.68;;;3.53;;
11203;SDS011;5659;49.408;11.116;2023-06-05T04:32:40;8.88;;;3.83;;
11203;SDS011;5659;49.408;11.116;2023-06-05T04:35:07;7.57;;;3.70;;
11203;SDS011;5659;49.408;11.116;2023-06-05T04:37:33;5.57;;;3.97;;
11203;SDS011;5659;49.408;11.116;2023-06-05T04:40:00;9.73;;;3.58;;
11203;SDS011;5659;49.408;11.116;2023-06-05T04:42:30;10.15;;;3.83;;
11203;SDS011;5659;49.408;11.116;2023-06-05T04:44:57;10.05;;;3.80;;
11203;SDS011;5659;49.408;11.116;2023-06-05T04:47:23;9.77;;;3.60;;
11203;SDS011;5659;49.408;11.116;2023-06-05T04:49:49;9.05;;;3.85;;
11203;SDS011;5659;49.408;11.116;2023-06-05T04:52:18;5.75;;;3.55;;
11203;SDS011;5659;49.408;11.116;2023-06-05T04:54:45;8.43;;;3.67;;
11203;SDS011;5659;49.408;11.116;2023-06-05T04:57:11;7.45;;;3.60;;
11203;SDS011;5659;49.408;11.116;2023-06-05T04:59:37;7.95;;;3.40;;
11203;SDS011;5659;49.408;11.116;2023-06-05T05:02:03;5.72;;;3.33;;
11203;SDS011;5659;49.408;11.116;2023-06-05T05:04:29;5.75;;;3.30;;
11203;SDS011;5659;49.408;11.116;2023-06-05T05:06:56;7.90;;;2.72;;
11203;SDS011;5659;49.408;11.116;2023-06-05T05:09:32;9.45;;;2.50;;
11203;SDS011;5659;49.408;11.116;2023-06-05T05:11:58;6.82;;;2.60;;
11203;SDS011;5659;49.408;11.116;2023-06-05T05:14:25;7.68;;;2.42;;
11203;SDS011;5659;49.408;11.116;2023-06-05T05:16:52;4.13;;;2.33;;
11203;SDS011;5659;49.408;11.116;2023-06-05T05:19:18;3.35;;;2.47;;
11203;SDS011;5659;49.408;11.116;2023-06-05T05:21:47;14.85;;;2.92;;
11203;SDS011;5659;49.408;11.116;2023-06-05T05:24:14;9.85;;;3.00;;
11203;SDS011;5659;49.408;11.116;2023-06-05T05:26:40;5.25;;;2.83;;
11203;SDS011;5659;49.408;11.116;2023-06-05T05:29:06;5.28;;;2.53;;
11203;SDS011;5659;49.408;11.116;2023-06-05T05:31:33;8.38;;;2.72;;
11203;SDS011;5659;49.408;11.116;2023-06-05T05:33:59;3.67;;;1.98;;
11203;SDS011;5659;49.408;11.116;2023-06-05T05:36:25;7.57;;;2.60;;
11203;SDS011;5659;49.408;11.116;2023-06-05T05:38:51;7.97;;;2.50;;
11203;SDS011;5659;49.408;11.116;2023-06-05T05:41:17;4.53;;;2.60;;
11203;SDS011;5659;49.408;11.116;2023-06-05T05:43:43;4.10;;;2.20;;
11203;SDS011;5659;49.408;11.116;2023-06-05T05:46:09;5.10;;;2.60;;
11203;SDS011;5659;49.408;11.116;2023-06-05T05:48:36;9.07;;;2.50;;
11203;SDS011;5659;49.408;11.116;2023-06-05T05:51:02;10.15;;;2.22;;
11203;SDS011;5659;49.408;11.116;2023-06-05T05:53:28;8.35;;;2.42;;
11203;SDS011;5659;49.408;11.116;2023-06-05T05:55:54;4.90;;;2.42;;
11203;SDS011;5659;49.408;11.116;2023-06-05T05:58:20;7.68;;;2.30;;
11203;SDS011;5659;49.408;11.116;2023-06-05T06:00:46;3.85;;;2.10;;
11203;SDS011;5659;49.408;11.116;2023-06-05T06:03:12;3.88;;;1.98;;
11203;SDS011;5659;49.408;11.116;2023-06-05T06:05:39;5.70;;;2.60;;
11203;SDS011;5659;49.408;11.116;2023-06-05T06:08:05;5.53;;;2.10;;
11203;SDS011;5659;49.408;11.116;2023-06-05T06:10:31;3.15;;;2.30;;
11203;SDS011;5659;49.408;11.116;2023-06-05T06:12:57;6.95;;;2.45;;
11203;SDS011;5659;49.408;11.116;2023-06-05T06:15:23;5.82;;;2.25;;
11203;SDS011;5659;49.408;11.116;2023-06-05T06:17:50;12.50;;;2.30;;
11203;SDS011;5659;49.408;11.116;2023-06-05T06:20:16;4.82;;;2.50;;
11203;SDS011;5659;49.408;11.116;2023-06-05T06:22:42;3.42;;;2.55;;
11203;SDS011;5659;49.408;11.116;2023-06-05T06:25:09;7.10;;;2.35;;
11203;SDS011;5659;49.408;11.116;2023-06-05T06:27:36;4.25;;;2.30;;
11203;SDS011;5659;49.408;11.116;2023-06-05T06:30:02;5.90;;;2.20;;
11203;SDS011;5659;49.408;11.116;2023-06-05T06:32:28;6.22;;;2.60;;
11203;SDS011;5659;49.408;11.116;2023-06-05T06:34:55;5.22;;;2.75;;
11203;SDS011;5659;49.408;11.116;2023-06-05T06:37:21;5.38;;;2.20;;
11203;SDS011;5659;49.408;11.116;2023-06-05T06:39:47;8.40;;;2.40;;
11203;SDS011;5659;49.408;11.116;2023-06-05T06:42:14;5.90;;;2.65;;
11203;SDS011;5659;49.408;11.116;2023-06-05T06:44:40;3.17;;;2.40;;
11203;SDS011;5659;49.408;11.116;2023-06-05T06:47:06;6.93;;;2.55;;
11203;SDS011;5659;49.408;11.116;2023-06-05T06:49:33;9.35;;;2.40;;
11203;SDS011;5659;49.408;11.116;2023-06-05T06:52:00;6.55;;;2.35;;
11203;SDS011;5659;49.408;11.116;2023-06-05T06:54:26;6.13;;;2.30;;
11203;SDS011;5659;49.408;11.116;2023-06-05T06:56:54;7.07;;;2.45;;
11203;SDS011;5659;49.408;11.116;2023-06-05T06:59:20;9.73;;;2.45;;
11203;SDS011;5659;49.408;11.116;2023-06-05T07:01:46;7.30;;;2.47;;
11203;SDS011;5659;49.408;11.116;2023-06-05T07:04:15;3.63;;;2.22;;
11203;SDS011;5659;49.408;11.116;2023-06-05T07:06:44;7.47;;;2.80;;
11203;SDS011;5659;49.408;11.116;2023-06-05T07:09:10;5.97;;;2.65;;
11203;SDS011;5659;49.408;11.116;2023-06-05T07:11:37;5.07;;;2.40;;
11203;SDS011;5659;49.408;11.116;2023-06-05T07:14:03;6.32;;;2.70;;
11203;SDS011;5659;49.408;11.116;2023-06-05T07:16:29;6.50;;;2.67;;
11203;SDS011;5659;49.408;11.116;2023-06-05T07:18:55;3.67;;;2.55;;
11203;SDS011;5659;49.408;11.116;2023-06-05T07:21:21;4.85;;;2.60;;
11203;SDS011;5659;49.408;11.116;2023-06-05T07:23:47;8.38;;;2.97;;
11203;SDS011;5659;49.408;11.116;2023-06-05T07:26:16;2.92;;;2.60;;
11203;SDS011;5659;49.408;11.116;2023-06-05T07:28:42;2.88;;;2.58;;
11203;SDS011;5659;49.408;11.116;2023-06-05T07:31:08;10.80;;;3.30;;
11203;SDS011;5659;49.408;11.116;2023-06-05T07:33:35;7.47;;;3.40;;
11203;SDS011;5659;49.408;11.116;2023-06-05T07:36:01;10.35;;;3.10;;
11203;SDS011;5659;49.408;11.116;2023-06-05T07:38:27;6.68;;;3.38;;
11203;SDS011;5659;49.408;11.116;2023-06-05T07:40:55;5.90;;;3.33;;
11203;SDS011;5659;49.408;11.116;2023-06-05T07:43:26;6.55;;;3.10;;
11203;SDS011;5659;49.408;11.116;2023-06-05T07:45:52;5.65;;;2.80;;
11203;SDS011;5659;49.408;11.116;2023-06-05T07:48:18;5.28;;;3.25;;
11203;SDS011;5659;49.408;11.116;2023-06-05T07:50:44;7.28;;;3.63;;
11203;SDS011;5659;49.408;11.116;2023-06-05T07:53:10;5.45;;;2.90;;
11203;SDS011;5659;49.408;11.116;2023-06-05T07:55:36;5.20;;;3.20;;
11203;SDS011;5659;49.408;11.116;2023-06-05T07:58:06;5.38;;;3.22;;
11203;SDS011;5659;49.408;11.116;2023-06-05T08:00:35;8.93;;;3.30;;
11203;SDS011;5659;49.408;11.116;2023-06-05T08:03:01;7.07;;;2.95;;
11203;SDS011;5659;49.408;11.116;2023-06-05T08:05:28;8.82;;;3.60;;
11203;SDS011;5659;49.408;11.116;2023-06-05T08:07:54;8.32;;;3.40;;
11203;SDS011;5659;49.408;11.116;2023-06-05T08:10:20;4.80;;;3.13;;
11203;SDS011;5659;49.408;11.116;2023-06-05T08:12:46;8.63;;;3.47;;
11203;SDS011;5659;49.408;11.116;2023-06-05T08:15:12;6.43;;;3.00;;
11203;SDS011;5659;49.408;11.116;2023-06-05T08:17:38;8.10;;;3.67;;
11203;SDS011;5659;49.408;11.116;2023-06-05T08:20:05;5.45;;;3.33;;
11203;SDS011;5659;49.408;11.116;2023-06-05T08:22:32;5.28;;;3.55;;
11203;SDS011;5659;49.408;11.116;2023-06-05T08:24:58;4.38;;;3.08;;
11203;SDS011;5659;49.408;11.116;2023-06-05T08:27:25;4.43;;;3.20;;
11203;SDS011;5659;49.408;11.116;2023-06-05T08:29:51;10.55;;;3.20;;
11203;SDS011;5659;49.408;11.116;2023-06-05T08:32:16;6.13;;;3.25;;
11203;SDS011;5659;49.408;11.116;2023-06-05T08:34:45;6.25;;;3.45;;
11203;SDS011;5659;49.408;11.116;2023-06-05T08:37:11;4.50;;;3.15;;
11203;SDS011;5659;49.408;11.116;2023-06-05T08:39:37;4.25;;;3.17;;
11203;SDS011;5659;49.408;11.116;2023-06-05T08:42:03;4.80;;;3.15;;
11203;SDS011;5659;49.408;11.116;2023-06-05T08:44:30;5.53;;;3.20;;
11203;SDS011;5659;49.408;11.116;2023-06-05T08:46:59;10.68;;;3.50;;
11203;SDS011;5659;49.408;11.116;2023-06-05T08:49:26;10.27;;;3.80;;
11203;SDS011;5659;49.408;11.116;2023-06-05T08:51:54;5.20;;;3.90;;
11203;SDS011;5659;49.408;11.116;2023-06-05T08:54:21;7.30;;;3.58;;
11203;SDS011;5659;49.408;11.116;2023-06-05T08:56:47;9.60;;;4.13;;
11203;SDS011;5659;49.408;11.116;2023-06-05T08:59:14;5.60;;;3.90;;
11203;SDS011;5659;49.408;11.116;2023-06-05T09:01:41;7.72;;;4.07;;
11203;SDS011;5659;49.408;11.116;2023-06-05T09:04:08;9.55;;;3.95;;
11203;SDS011;5659;49.408;11.116;2023-06-05T09:06:34;9.10;;;4.15;;
11203;SDS011;5659;49.408;11.116;2023-06-05T09:09:01;5.97;;;3.75;;
11203;SDS011;5659;49.408;11.116;2023-06-05T09:11:28;9.05;;;3.80;;
11203;SDS011;5659;49.408;11.116;2023-06-05T09:13:55;7.65;;;3.78;;
11203;SDS011;5659;49.408;11.116;2023-06-05T09:16:22;9.20;;;3.42;;
11203;SDS011;5659;49.408;11.116;2023-06-05T09:18:55;8.20;;;3.78;;
11203;SDS011;5659;49.408;11.116;2023-06-05T09:21:22;6.53;;;4.38;;
11203;SDS011;5659;49.408;11.116;2023-06-05T09:23:54;6.65;;;3.80;;
11203;SDS011;5659;49.408;11.116;2023-06-05T09:27:10;8.85;;;4.20;;
11203;SDS011;5659;49.408;11.116;2023-06-05T09:29:30;8.73;;;4.05;;
11203;SDS011;5659;49.408;11.116;2023-06-05T09:31:57;7.30;;;3.83;;
11203;SDS011;5659;49.408;11.116;2023-06-05T09:34:33;5.95;;;3.80;;
11203;SDS011;5659;49.408;11.116;2023-06-05T09:37:03;13.80;;;3.80;;
11203;SDS011;5659;49.408;11.116;2023-06-05T09:39:31;7.00;;;3.78;;
11203;SDS011;5659;49.408;11.116;2023-06-05T09:41:58;9.23;;;4.03;;
11203;SDS011;5659;49.408;11.116;2023-06-05T09:44:24;7.90;;;3.80;;
11203;SDS011;5659;49.408;11.116;2023-06-05T09:46:51;4.78;;;3.72;;
11203;SDS011;5659;49.408;11.116;2023-06-05T09:49:18;10.70;;;3.78;;
11203;SDS011;5659;49.408;11.116;2023-06-05T09:51:44;5.47;;;4.13;;
11203;SDS011;5659;49.408;11.116;2023-06-05T09:54:11;6.82;;;3.60;;
11203;SDS011;5659;49.408;11.116;2023-06-05T09:56:40;4.82;;;3.80;;
11203;SDS011;5659;49.408;11.116;2023-06-05T09:59:07;10.43;;;3.80;;
11203;SDS011;5659;49.408;11.116;2023-06-05T10:01:37;10.90;;;3.70;;
11203;SDS011;5659;49.408;11.116;2023-06-05T10:04:07;7.32;;;3.60;;
11203;SDS011;5659;49.408;11.116;2023-06-05T10:06:34;4.90;;;3.65;;
11203;SDS011;5659;49.408;11.116;2023-06-05T10:09:02;5.47;;;3.72;;
11203;SDS011;5659;49.408;11.116;2023-06-05T10:11:28;7.55;;;3.88;;
11203;SDS011;5659;49.408;11.116;2023-06-05T10:13:54;6.20;;;3.40;;
11203;SDS011;5659;49.408;11.116;2023-06-05T10:16:23;7.80;;;3.40;;
11203;SDS011;5659;49.408;11.116;2023-06-05T10:18:51;4.82;;;3.58;;
11203;SDS011;5659;49.408;11.116;2023-06-05T10:21:17;5.57;;;3.50;;
11203;SDS011;5659;49.408;11.116;2023-06-05T10:24:06;5.30;;;3.75;;
11203;SDS011;5659;49.408;11.116;2023-06-05T10:31:38;5.18;;;3.28;;
11203;SDS011;5659;49.408;11.116;2023-06-05T10:39:47;6.00;;;3.30;;
11203;SDS011;5659;49.408;11.116;2023-06-05T10:42:22;3.80;;;3.20;;
11203;SDS011;5659;49.408;11.116;2023-06-05T10:44:48;5.38;;;2.95;;
11203;SDS011;5659;49.408;11.116;2023-06-05T10:52:46;4.05;;;3.17;;
11203;SDS011;5659;49.408;11.116;2023-06-05T10:55:12;3.88;;;2.78;;
11203;SDS011;5659;49.408;11.116;2023-06-05T11:00:23;7.20;;;3.35;;
11203;SDS011;5659;49.408;11.116;2023-06-05T11:02:49;7.43;;;3.83;;
11203;SDS011;5659;49.408;11.116;2023-06-05T11:05:15;3.78;;;3.20;;
11203;SDS011;5659;49.408;11.116;2023-06-05T11:07:41;6.47;;;3.08;;
11203;SDS011;5659;49.408;11.116;2023-06-05T11:10:14;5.57;;;2.97;;
11203;SDS011;5659;49.408;11.116;2023-06-05T11:15:09;7.95;;;3.10;;
11203;SDS011;5659;49.408;11.116;2023-06-05T11:17:36;7.50;;;3.08;;
11203;SDS011;5659;49.408;11.116;2023-06-05T11:20:02;8.40;;;3.35;;
11203;SDS011;5659;49.408;11.116;2023-06-05T11:22:30;3.75;;;2.80;;
11203;SDS011;5659;49.408;11.116;2023-06-05T11:25:42;5.20;;;2.88;;
11203;SDS011;5659;49.408;11.116;2023-06-05T11:28:01;4.45;;;2.58;;
11203;SDS011;5659;49.408;11.116;2023-06-05T11:30:30;3.17;;;2.42;;
11203;SDS011;5659;49.408;11.116;2023-06-05T11:33:13;3.15;;;2.30;;
11203;SDS011;5659;49.408;11.116;2023-06-05T11:35:41;5.95;;;2.80;;
11203;SDS011;5659;49.408;11.116;2023-06-05T11:40:36;4.63;;;2.80;;
11203;SDS011;5659;49.408;11.116;2023-06-05T11:43:03;2.42;;;2.22;;
11203;SDS011;5659;49.408;11.116;2023-06-05T11:45:30;4.28;;;2.53;;
11203;SDS011;5659;49.408;11.116;2023-06-05T11:50:35;4.35;;;2.42;;
11203;SDS011;5659;49.408;11.116;2023-06-05T11:53:04;5.32;;;2.40;;
11203;SDS011;5659;49.408;11.116;2023-06-05T11:55:31;12.10;;;2.83;;
11203;SDS011;5659;49.408;11.116;2023-06-05T11:58:22;2.42;;;1.83;;
11203;SDS011;5659;49.408;11.116;2023-06-05T12:00:48;4.95;;;2.13;;
11203;SDS011;5659;49.408;11.116;2023-06-05T12:03:21;3.03;;;1.90;;
11203;SDS011;5659;49.408;11.116;2023-06-05T12:05:47;4.05;;;2.00;;
11203;SDS011;5659;49.408;11.116;2023-06-05T12:08:23;6.07;;;2.17;;
11203;SDS011;5659;49.408;11.116;2023-06-05T12:10:59;3.80;;;2.30;;
11203;SDS011;5659;49.408;11.116;2023-06-05T12:13:48;6.00;;;2.10;;
11203;SDS011;5659;49.408;11.116;2023-06-05T12:16:14;6.07;;;2.20;;
11203;SDS011;5659;49.408;11.116;2023-06-05T12:18:41;3.05;;;2.15;;
11203;SDS011;5659;49.408;11.116;2023-06-05T12:21:13;3.85;;;2.20;;
11203;SDS011;5659;49.408;11.116;2023-06-05T12:23:44;6.00;;;2.20;;
11203;SDS011;5659;49.408;11.116;2023-06-05T12:26:10;2.72;;;1.90;;
11203;SDS011;5659;49.408;11.116;2023-06-05T12:28:36;3.15;;;1.98;;
11203;SDS011;5659;49.408;11.116;2023-06-05T12:31:02;4.32;;;2.28;;
11203;SDS011;5659;49.408;11.116;2023-06-05T12:33:28;2.78;;;2.10;;
11203;SDS011;5659;49.408;11.116;2023-06-05T12:36:07;4.18;;;2.05;;
11203;SDS011;5659;49.408;11.116;2023-06-05T12:38:37;2.60;;;2.05;;
11203;SDS011;5659;49.408;11.116;2023-06-05T12:41:04;4.40;;;2.28;;
11203;SDS011;5659;49.408;11.116;2023-06-05T12:43:31;1.85;;;1.70;;
11203;SDS011;5659;49.408;11.116;2023-06-05T12:45:57;4.50;;;1.83;;
11203;SDS011;5659;49.408;11.116;2023-06-05T12:48:23;6.28;;;1.90;;
11203;SDS011;5659;49.408;11.116;2023-06-05T12:50:50;2.08;;;1.88;;
11203;SDS011;5659;49.408;11.116;2023-06-05T12:53:16;7.18;;;1.92;;
11203;SDS011;5659;49.408;11.116;2023-06-05T12:55:43;2.70;;;1.70;;
11203;SDS011;5659;49.408;11.116;2023-06-05T12:58:09;2.75;;;1.90;;
11203;SDS011;5659;49.408;11.116;2023-06-05T13:00:35;2.55;;;1.80;;
11203;SDS011;5659;49.408;11.116;2023-06-05T13:03:01;2.20;;;2.00;;
11203;SDS011;5659;49.408;11.116;2023-06-05T13:05:28;7.55;;;2.17;;
11203;SDS011;5659;49.408;11.116;2023-06-05T13:07:58;5.70;;;2.00;;
11203;SDS011;5659;49.408;11.116;2023-06-05T13:10:24;1.90;;;1.63;;
11203;SDS011;5659;49.408;11.116;2023-06-05T13:12:50;3.40;;;1.98;;
11203;SDS011;5659;49.408;11.116;2023-06-05T13:15:16;4.85;;;1.90;;
11203;SDS011;5659;49.408;11.116;2023-06-05T13:17:42;5.40;;;2.00;;
11203;SDS011;5659;49.408;11.116;2023-06-05T13:20:10;6.90;;;2.13;;
11203;SDS011;5659;49.408;11.116;2023-06-05T13:22:38;3.25;;;2.20;;
11203;SDS011;5659;49.408;11.116;2023-06-05T13:25:07;4.90;;;2.40;;
11203;SDS011;5659;49.408;11.116;2023-06-05T13:27:33;2.35;;;1.83;;
11203;SDS011;5659;49.408;11.116;2023-06-05T13:29:59;2.17;;;2.00;;
11203;SDS011;5659;49.408;11.116;2023-06-05T13:32:27;3.88;;;2.35;;
11203;SDS011;5659;49.408;11.116;2023-06-05T13:34:53;2.00;;;1.83;;
11203;SDS011;5659;49.408;11.116;2023-06-05T13:37:20;2.05;;;1.75;;
11203;SDS011;5659;49.408;11.116;2023-06-05T13:39:46;5.00;;;2.08;;
11203;SDS011;5659;49.408;11.116;2023-06-05T13:42:12;4.05;;;2.03;;
11203;SDS011;5659;49.408;11.116;2023-06-05T13:44:38;2.28;;;1.90;;
11203;SDS011;5659;49.408;11.116;2023-06-05T13:47:04;3.03;;;1.83;;
11203;SDS011;5659;49.408;11.116;2023-06-05T13:49:30;2.53;;;1.80;;
11203;SDS011;5659;49.408;11.116;2023-06-05T13:51:56;5.10;;;2.20;;
11203;SDS011;5659;49.408;11.116;2023-06-05T13:54:22;5.47;;;1.90;;
11203;SDS011;5659;49.408;11.116;2023-06-05T13:56:48;3.88;;;2.28;;
11203;SDS011;5659;49.408;11.116;2023-06-05T13:59:16;4.40;;;2.17;;
11203;SDS011;5659;49.408;11.116;2023-06-05T14:01:42;3.17;;;2.05;;
11203;SDS011;5659;49.408;11.116;2023-06-05T14:04:08;4.07;;;2.25;;
11203;SDS011;5659;49.408;11.116;2023-06-05T14:06:34;2.35;;;1.95;;
11203;SDS011;5659;49.408;11.116;2023-06-05T14:09:03;11.05;;;2.70;;
11203;SDS011;5659;49.408;11.116;2023-06-05T14:11:29;3.42;;;2.30;;
11203;SDS011;5659;49.408;11.116;2023-06-05T14:13:55;2.10;;;1.90;;
11203;SDS011;5659;49.408;11.116;2023-06-05T14:16:22;2.85;;;2.03;;
11203;SDS011;5659;49.408;11.116;2023-06-05T14:18:57;2.25;;;1.90;;
11203;SDS011;5659;49.408;11.116;2023-06-05T14:21:23;2.50;;;2.30;;
11203;SDS011;5659;49.408;11.116;2023-06-05T14:23:49;2.40;;;2.15;;
11203;SDS011;5659;49.408;11.116;2023-06-05T14:26:14;9.10;;;2.72;;
11203;SDS011;5659;49.408;11.116;2023-06-05T14:28:40;2.47;;;2.17;;
11203;SDS011;5659;49.408;11.116;2023-06-05T14:31:06;3.22;;;2.15;;
11203;SDS011;5659;49.408;11.116;2023-06-05T14:33:33;2.13;;;1.92;;
11203;SDS011;5659;49.408;11.116;2023-06-05T14:35:59;3.38;;;1.95;;
11203;SDS011;5659;49.408;11.116;2023-06-05T14:38:25;2.30;;;2.10;;
11203;SDS011;5659;49.408;11.116;2023-06-05T14:40:51;3.97;;;2.20;;
11203;SDS011;5659;49.408;11.116;2023-06-05T14:43:18;3.22;;;2.30;;
11203;SDS011;5659;49.408;11.116;2023-06-05T14:45:44;5.35;;;2.50;;
11203;SDS011;5659;49.408;11.116;2023-06-05T14:48:10;6.90;;;2.00;;
11203;SDS011;5659;49.408;11.116;2023-06-05T14:50:36;2.60;;;2.40;;
11203;SDS011;5659;49.408;11.116;2023-06-05T14:53:02;3.03;;;2.58;;
11203;SDS011;5659;49.408;11.116;2023-06-05T14:55:28;3.13;;;2.55;;
11203;SDS011;5659;49.408;11.116;2023-06-05T14:57:54;4.32;;;2.58;;
11203;SDS011;5659;49.408;11.116;2023-06-05T15:00:24;3.00;;;2.35;;
11203;SDS011;5659;49.408;11.116;2023-06-05T15:02:50;3.47;;;2.60;;
11203;SDS011;5659;49.408;11.116;2023-06-05T15:05:16;7.32;;;2.40;;
11203;SDS011;5659;49.408;11.116;2023-06-05T15:07:42;5.80;;;2.70;;
11203;SDS011;5659;49.408;11.116;2023-06-05T15:10:09;3.17;;;2.40;;
11203;SDS011;5659;49.408;11.116;2023-06-05T15:12:37;3.25;;;2.38;;
11203;SDS011;5659;49.408;11.116;2023-06-05T15:15:05;7.70;;;2.83;;
11203;SDS011;5659;49.408;11.116;2023-06-05T15:17:31;6.20;;;2.55;;
11203;SDS011;5659;49.408;11.116;2023-06-05T15:19:57;2.63;;;2.38;;